ESGG/GOT METAR and TAF weather

Enter ICAO airport designator
Station Type Date Time Source
ESGG METAR 2019/08/22 15:20 UTC NOAA

ESGG 221520Z 19013KT CAVOK 18/10 Q1022


Station Type Date Time Source
ESGG Decoded METAR 2019/08/22 15:20 UTC NOAA

Station name not available
Aug 22, 2019 - 11:20 AM EDT / 2019.08.22 1520 UTC
Wind: from the S (190 degrees) at 15 MPH (13 KT):0
Visibility: greater than 7 mile(s):0
Temperature: 64 F (18 C)
Dew Point: 50 F (10 C)
Relative Humidity: 59%
Pressure (altimeter): 30.18 in. Hg (1022 hPa)
ob: ESGG 221520Z 19013KT CAVOK 18/10 Q1022
cycle: 15

Station Type Date Time Source
ESGG TAF 2019/08/22 12:33 UTC NOAA

TAF TAF ESGG 221130Z 2212/2312 20016KT 9999 SCT030 BKN050
TEMPO 2212/2219 RA
BECMG 2216/2218 21005KT PROB40 2223/2303 2500 BR PROB40 2303/2310 1200 BR BKN004

Example: see airport list